Sisquoc, California
Current Conditions -  °F | °C
As of 1:51 AM on Wednesday 26 Nov 2014 (Local Time) from KSMX Reporting Station
Clear Clear  
Wind Chill: 50°   Ceiling: Unl
Heat Index: 50°   Visibility: 10mi
Dew Point: 30°   Wind: 3mph
Humidity: 46%   Direction: 130°SE
Pressure: 30.26"   Gusts: NA
Location:  34.9452°N, 120.389°W
Report Text: KSMX 260951Z AUTO 13003KT 10SM CLR 10/M01 A3026 RMK AO2 SLP247 T01001011 $
Loading
Personal Weather Stations






























Interactive Weather Map New forecast layout! Learn more

10-Day Weather Forecast

Advertisements
Track Severe Weather on mobile